createdAt,value
2022-09-10T00:00:38.012Z,14.40
2022-09-10T00:03:04.643Z,14.39
2022-09-10T00:05:31.179Z,14.19
2022-09-10T00:07:57.570Z,14.40
2022-09-10T00:10:23.983Z,14.37
2022-09-10T00:12:50.369Z,14.33
2022-09-10T00:15:17.576Z,14.46
2022-09-10T00:17:44.153Z,14.55
2022-09-10T00:20:10.747Z,14.45
2022-09-10T00:22:37.336Z,14.32
2022-09-10T00:25:08.095Z,14.26
2022-09-10T00:27:36.319Z,14.20
2022-09-10T00:30:03.874Z,14.35
2022-09-10T00:32:30.265Z,14.43
2022-09-10T00:34:56.695Z,14.29
2022-09-10T00:37:23.124Z,14.28
2022-09-10T00:39:49.521Z,14.25
2022-09-10T00:42:15.954Z,14.24
2022-09-10T00:44:42.358Z,14.42
2022-09-10T00:47:29.366Z,14.48
2022-09-10T00:50:05.523Z,14.22
2022-09-10T00:52:34.477Z,14.37
2022-09-10T00:55:04.822Z,14.21
2022-09-10T00:57:31.390Z,14.42
2022-09-10T01:00:07.110Z,14.52
2022-09-10T01:02:33.846Z,14.45
2022-09-10T01:05:02.280Z,14.51
2022-09-10T01:07:30.320Z,14.51
2022-09-10T01:09:59.748Z,14.50
2022-09-10T01:12:56.901Z,14.46
2022-09-10T01:15:31.115Z,14.48
2022-09-10T01:18:10.343Z,14.46
2022-09-10T01:20:57.622Z,14.48
2022-09-10T01:23:27.097Z,14.48
2022-09-10T01:26:27.653Z,14.46
2022-09-10T01:29:20.743Z,14.43
2022-09-10T01:32:08.525Z,14.43
2022-09-10T01:35:07.821Z,14.41
2022-09-10T01:37:38.185Z,14.48
2022-09-10T01:40:05.638Z,14.24
2022-09-10T01:42:32.940Z,14.42
2022-09-10T01:44:59.395Z,14.43
2022-09-10T01:47:50.320Z,14.51
2022-09-10T01:50:30.337Z,14.15
2022-09-10T01:52:59.748Z,14.52
2022-09-10T01:56:03.650Z,14.49
2022-09-10T01:58:40.446Z,14.52
2022-09-10T02:01:16.120Z,14.45
2022-09-10T02:03:45.719Z,14.50
2022-09-10T02:06:18.275Z,14.28
2022-09-10T02:08:48.725Z,14.27
2022-09-10T02:11:15.894Z,14.53
2022-09-10T02:13:42.380Z,14.24
2022-09-10T02:16:13.127Z,14.34
2022-09-10T02:18:40.131Z,14.53
2022-09-10T02:21:09.062Z,14.52
2022-09-10T02:23:43.633Z,14.58
2022-09-10T02:26:11.195Z,14.57
2022-09-10T02:28:38.492Z,14.38
2022-09-10T02:31:05.112Z,14.55
2022-09-10T02:33:31.644Z,14.54
2022-09-10T02:35:58.704Z,14.55
2022-09-10T02:38:25.141Z,14.58
2022-09-10T02:40:51.647Z,14.52
2022-09-10T02:43:18.168Z,14.56
2022-09-10T02:45:44.877Z,14.58
2022-09-10T02:48:11.349Z,14.53
2022-09-10T02:50:37.743Z,14.27
2022-09-10T02:53:04.159Z,14.51
2022-09-10T02:55:30.583Z,14.54
2022-09-10T02:57:57.189Z,14.51
2022-09-10T03:00:24.311Z,14.27
2022-09-10T03:02:50.812Z,14.57
2022-09-10T03:05:17.626Z,14.23
2022-09-10T03:07:44.089Z,14.52
2022-09-10T03:10:10.562Z,14.24
2022-09-10T03:12:36.953Z,14.53
2022-09-10T03:15:03.614Z,14.51
2022-09-10T03:17:30.201Z,14.26
2022-09-10T03:19:56.641Z,14.36
2022-09-10T03:22:23.031Z,14.28
2022-09-10T03:24:49.484Z,14.28
2022-09-10T03:27:15.966Z,14.27
2022-09-10T03:29:42.653Z,14.15
2022-09-10T03:32:09.063Z,14.46
2022-09-10T03:34:35.494Z,14.52
2022-09-10T03:37:01.900Z,14.52
2022-09-10T03:39:28.310Z,14.49
2022-09-10T03:41:54.757Z,14.24
2022-09-10T03:44:21.174Z,14.56
2022-09-10T03:46:47.823Z,14.21
2022-09-10T03:49:14.272Z,14.49
2022-09-10T03:51:40.708Z,14.47
2022-09-10T03:54:07.114Z,14.19
2022-09-10T03:56:33.568Z,14.29
2022-09-10T03:59:00.407Z,14.52
2022-09-10T04:01:27.081Z,14.55
2022-09-10T04:03:57.202Z,14.32
2022-09-10T04:06:23.682Z,14.18
2022-09-10T04:08:50.903Z,14.17
2022-09-10T04:11:17.618Z,14.55
2022-09-10T04:13:43.983Z,14.24
2022-09-10T04:16:10.474Z,14.59
2022-09-10T04:18:36.958Z,14.50
2022-09-10T04:21:03.642Z,14.56
2022-09-10T04:23:30.066Z,14.56
2022-09-10T04:25:56.546Z,14.56
2022-09-10T04:28:23.038Z,14.25
2022-09-10T04:30:49.810Z,14.60
2022-09-10T04:33:16.940Z,14.27
2022-09-10T04:35:43.742Z,14.31
2022-09-10T04:38:10.120Z,14.28
2022-09-10T04:40:37.063Z,14.57
2022-09-10T04:43:03.537Z,14.49
2022-09-10T04:45:29.964Z,14.36
2022-09-10T04:47:56.374Z,14.37
2022-09-10T04:50:22.791Z,14.50
2022-09-10T04:52:49.252Z,14.17
2022-09-10T04:55:15.744Z,14.53
2022-09-10T04:57:42.154Z,14.39
2022-09-10T05:00:09.193Z,14.32
2022-09-10T05:02:35.648Z,14.42
2022-09-10T05:05:02.061Z,14.61
2022-09-10T05:07:28.477Z,14.21
2022-09-10T05:09:54.893Z,14.20
2022-09-10T05:12:21.283Z,14.60
2022-09-10T05:14:47.816Z,14.24
2022-09-10T05:17:14.361Z,14.59
2022-09-10T05:19:40.818Z,14.49
2022-09-10T05:22:07.633Z,14.52
2022-09-10T05:24:34.066Z,14.32
2022-09-10T05:27:00.630Z,14.65
2022-09-10T05:29:27.068Z,14.56
2022-09-10T05:31:53.555Z,14.57
2022-09-10T05:34:19.956Z,14.26
2022-09-10T05:36:46.372Z,14.57
2022-09-10T05:39:12.840Z,14.33
2022-09-10T05:41:39.217Z,14.35
2022-09-10T05:44:05.669Z,14.37
2022-09-10T05:46:32.076Z,14.50
2022-09-10T05:48:58.678Z,14.63
2022-09-10T05:51:25.097Z,14.60
2022-09-10T05:53:51.476Z,14.65
2022-09-10T05:56:17.908Z,14.30
2022-09-10T05:58:44.292Z,14.56
2022-09-10T06:01:10.737Z,14.73
2022-09-10T06:03:37.152Z,14.45
2022-09-10T06:06:03.639Z,14.42
2022-09-10T06:08:30.046Z,14.67
2022-09-10T06:10:57.961Z,14.66
2022-09-10T06:13:24.964Z,14.78
2022-09-10T06:15:51.396Z,14.58
2022-09-10T06:18:18.015Z,14.85
2022-09-10T06:20:44.604Z,14.70
2022-09-10T06:23:10.982Z,14.99
2022-09-10T06:25:37.515Z,14.66
2022-09-10T06:28:03.957Z,15.01
2022-09-10T06:30:30.423Z,14.92
2022-09-10T06:32:56.827Z,14.96
2022-09-10T06:35:23.259Z,14.81
2022-09-10T06:37:49.676Z,14.76
2022-09-10T06:40:16.165Z,14.85
2022-09-10T06:42:42.623Z,14.86
2022-09-10T06:45:09.507Z,15.06
2022-09-10T06:50:22.368Z,14.93
2022-09-10T06:52:48.942Z,15.17
2022-09-10T06:55:15.416Z,15.16
2022-09-10T06:57:41.840Z,15.14
2022-09-10T07:00:08.824Z,15.17
2022-09-10T07:02:35.228Z,14.84
2022-09-10T07:05:01.688Z,15.15
2022-09-10T07:07:28.132Z,14.89
2022-09-10T07:09:54.593Z,14.82
2022-09-10T07:12:21.052Z,15.14
2022-09-10T07:14:47.500Z,15.18
2022-09-10T07:17:13.921Z,15.30
2022-09-10T07:19:40.350Z,15.35
2022-09-10T07:22:06.789Z,15.38
2022-09-10T07:24:33.284Z,15.36
2022-09-10T07:26:59.689Z,15.34
2022-09-10T07:29:26.212Z,15.16
2022-09-10T07:31:52.617Z,15.36
2022-09-10T07:34:19.088Z,15.18
2022-09-10T07:36:45.518Z,15.34
2022-09-10T07:39:11.917Z,15.37
2022-09-10T07:41:38.350Z,15.39
2022-09-10T07:44:04.906Z,15.22
2022-09-10T07:46:31.428Z,15.46
2022-09-10T07:48:59.736Z,15.15
2022-09-10T07:51:28.488Z,15.55
2022-09-10T07:53:56.784Z,15.24
2022-09-10T07:56:24.116Z,15.60
2022-09-10T07:58:51.632Z,15.52
2022-09-10T08:01:18.599Z,15.67
2022-09-10T08:03:45.365Z,15.50
2022-09-10T08:06:11.898Z,15.74
2022-09-10T08:08:39.948Z,15.58
2022-09-10T08:11:12.289Z,15.68
2022-09-10T08:13:43.321Z,15.92
2022-09-10T08:16:12.686Z,15.78
2022-09-10T08:18:39.561Z,15.97
2022-09-10T08:21:07.488Z,15.93
2022-09-10T08:23:34.229Z,16.47
2022-09-10T08:26:00.727Z,16.39
2022-09-10T08:28:27.371Z,16.17
2022-09-10T08:31:02.520Z,16.32
2022-09-10T08:33:30.090Z,16.56
2022-09-10T08:36:00.354Z,16.56
2022-09-10T08:38:31.232Z,16.35
2022-09-10T08:40:58.517Z,16.58
2022-09-10T08:43:44.541Z,16.59
2022-09-10T08:46:19.396Z,16.40
2022-09-10T08:48:49.686Z,16.39
2022-09-10T08:51:27.560Z,16.42
2022-09-10T08:53:59.792Z,16.17
2022-09-10T08:56:27.759Z,16.22
2022-09-10T08:59:02.453Z,16.58
2022-09-10T09:01:37.695Z,16.62
2022-09-10T09:04:14.199Z,16.42
2022-09-10T09:07:03.659Z,16.89
2022-09-10T09:09:30.305Z,16.82
2022-09-10T09:12:25.141Z,17.11
2022-09-10T09:15:21.088Z,16.92
2022-09-10T09:17:59.690Z,17.16
2022-09-10T09:20:45.585Z,16.99
2022-09-10T09:23:22.697Z,17.09
2022-09-10T09:26:13.480Z,16.92
2022-09-10T09:28:52.727Z,17.03
2022-09-10T09:31:25.685Z,17.01
2022-09-10T09:33:59.196Z,16.92
2022-09-10T09:36:33.413Z,17.20
2022-09-10T09:39:03.752Z,17.28
2022-09-10T09:41:48.955Z,17.02
2022-09-10T09:44:33.180Z,17.09
2022-09-10T09:46:59.665Z,16.98
2022-09-10T09:49:26.106Z,17.04
2022-09-10T09:51:53.285Z,16.74
2022-09-10T09:57:16.902Z,16.79
2022-09-10T09:59:43.612Z,16.69
2022-09-10T10:02:15.215Z,16.93
2022-09-10T10:04:58.556Z,16.86
2022-09-10T10:07:30.839Z,16.81
2022-09-10T10:10:00.095Z,16.66
2022-09-10T10:12:28.903Z,16.93
2022-09-10T10:14:55.378Z,16.92
2022-09-10T10:17:24.583Z,16.89
2022-09-10T10:20:03.078Z,16.88
2022-09-10T10:22:30.079Z,16.99
2022-09-10T10:24:56.714Z,17.19
2022-09-10T10:27:42.255Z,17.35
2022-09-10T10:30:11.558Z,17.32
2022-09-10T10:32:47.717Z,17.33
2022-09-10T10:35:31.335Z,17.35
2022-09-10T10:38:16.342Z,17.55
2022-09-10T10:40:52.402Z,17.38
2022-09-10T10:43:42.091Z,17.43
2022-09-10T10:46:27.304Z,17.44
2022-09-10T10:49:20.184Z,17.70
2022-09-10T10:52:08.823Z,17.58
2022-09-10T10:54:59.579Z,17.41
2022-09-10T10:57:47.886Z,17.30
2022-09-10T11:00:19.602Z,17.55
2022-09-10T11:03:11.535Z,17.61
2022-09-10T11:05:45.996Z,17.60
2022-09-10T11:08:17.324Z,17.58
2022-09-10T11:10:49.540Z,17.60
2022-09-10T11:13:53.542Z,17.72
2022-09-10T11:17:04.225Z,17.85
2022-09-10T11:19:56.608Z,17.85
2022-09-10T11:22:41.319Z,17.99
2022-09-10T11:25:12.379Z,18.11
2022-09-10T11:27:45.445Z,18.12
2022-09-10T11:30:16.897Z,17.96
2022-09-10T11:32:53.336Z,18.05
2022-09-10T11:35:25.801Z,18.46
2022-09-10T11:38:10.775Z,18.53
2022-09-10T11:41:06.915Z,18.62
2022-09-10T11:43:45.432Z,18.49
2022-09-10T11:46:17.404Z,18.75
2022-09-10T11:48:54.166Z,18.63
2022-09-10T11:51:30.747Z,18.71
2022-09-10T11:53:58.017Z,18.85
2022-09-10T11:56:27.199Z,18.86
2022-09-10T11:59:05.694Z,18.78
2022-09-10T12:01:59.935Z,18.86
2022-09-10T12:04:50.558Z,18.90
2022-09-10T12:07:22.350Z,19.07
2022-09-10T12:10:14.759Z,19.23
2022-09-10T12:12:47.492Z,19.15
2022-09-10T12:15:28.137Z,19.29
2022-09-10T12:18:00.268Z,19.37
2022-09-10T12:20:37.862Z,19.46
2022-09-10T12:23:05.400Z,19.37
2022-09-10T12:25:34.655Z,19.68
2022-09-10T12:28:04.199Z,20.02
2022-09-10T12:30:30.599Z,20.10
2022-09-10T12:32:58.805Z,19.98
2022-09-10T12:35:31.520Z,20.10
2022-09-10T12:38:35.456Z,20.10
2022-09-10T12:41:03.629Z,19.80
2022-09-10T12:43:39.257Z,20.33
2022-09-10T12:46:08.809Z,20.13
2022-09-10T12:48:38.738Z,19.76
2022-09-10T12:51:17.009Z,19.96
2022-09-10T12:54:00.998Z,19.72
2022-09-10T12:56:54.982Z,19.85
2022-09-10T12:59:46.538Z,20.04
2022-09-10T13:02:30.057Z,20.54
2022-09-10T13:05:01.649Z,20.22
2022-09-10T13:07:37.806Z,20.63
2022-09-10T13:10:26.354Z,20.34
2022-09-10T13:12:57.154Z,20.47
2022-09-10T13:15:27.526Z,20.99
2022-09-10T13:17:53.882Z,21.40
2022-09-10T13:20:20.253Z,21.34
2022-09-10T13:23:00.079Z,21.14
2022-09-10T13:25:34.266Z,20.48
2022-09-10T13:28:01.652Z,20.64
2022-09-10T13:30:29.582Z,21.01
2022-09-10T13:33:00.332Z,21.71
2022-09-10T13:35:41.692Z,22.92
2022-09-10T13:38:29.618Z,22.54
2022-09-10T13:41:04.967Z,23.54
2022-09-10T13:43:37.155Z,24.05
2022-09-10T13:46:10.161Z,24.35
2022-09-10T13:49:16.403Z,22.92
2022-09-10T13:51:55.316Z,23.01
2022-09-10T13:54:30.461Z,23.95
2022-09-10T13:57:03.240Z,22.28
2022-09-10T13:59:33.455Z,20.86
2022-09-10T14:01:59.901Z,20.74
2022-09-10T14:04:36.284Z,20.74
2022-09-10T14:07:05.493Z,20.73
2022-09-10T14:09:33.015Z,20.43
2022-09-10T14:12:03.747Z,20.20
2022-09-10T14:14:35.000Z,20.12
2022-09-10T14:17:06.797Z,20.01
2022-09-10T14:19:52.063Z,19.77
2022-09-10T14:22:20.119Z,19.84
2022-09-10T14:25:05.042Z,19.95
2022-09-10T14:27:33.570Z,19.80
2022-09-10T14:30:23.292Z,19.73
2022-09-10T14:32:50.601Z,19.62
2022-09-10T14:35:40.014Z,20.52
2022-09-10T14:38:36.136Z,20.00
2022-09-10T14:41:08.661Z,20.25
2022-09-10T14:43:38.059Z,20.03
2022-09-10T14:46:06.913Z,19.82
2022-09-10T14:48:38.054Z,19.82
2022-09-10T14:51:18.019Z,20.18
2022-09-10T14:53:46.589Z,20.68
2022-09-10T14:56:22.732Z,20.83
2022-09-10T14:58:57.934Z,20.39
2022-09-10T15:01:24.464Z,20.52
2022-09-10T15:03:51.005Z,20.17
2022-09-10T15:06:17.492Z,19.91
2022-09-10T15:08:43.960Z,21.16
2022-09-10T15:11:19.726Z,21.49
2022-09-10T15:13:47.315Z,22.00
2022-09-10T15:16:14.364Z,22.08
2022-09-10T15:18:41.296Z,22.00
2022-09-10T15:21:10.589Z,21.95
2022-09-10T15:23:37.051Z,21.97
2022-09-10T15:26:04.844Z,21.83
2022-09-10T15:28:31.581Z,22.08
2022-09-10T15:30:58.170Z,21.90
2022-09-10T15:33:24.918Z,22.15
2022-09-10T15:35:51.418Z,21.82
2022-09-10T15:38:18.317Z,21.93
2022-09-10T15:40:48.414Z,21.58
2022-09-10T15:43:15.656Z,21.59
2022-09-10T15:45:42.171Z,20.80
2022-09-10T15:48:08.603Z,20.60
2022-09-10T15:50:37.702Z,20.47
2022-09-10T15:53:04.129Z,20.19
2022-09-10T15:55:30.630Z,19.81
2022-09-10T15:57:57.463Z,19.72
2022-09-10T16:00:24.240Z,19.48
2022-09-10T16:02:52.214Z,19.61
2022-09-10T16:05:20.615Z,19.54
2022-09-10T16:07:47.458Z,19.58
2022-09-10T16:10:15.427Z,19.41
2022-09-10T16:12:42.489Z,19.53
2022-09-10T16:15:09.434Z,19.56
2022-09-10T16:17:35.905Z,19.52
2022-09-10T16:20:02.523Z,19.38
2022-09-10T16:22:29.164Z,19.19
2022-09-10T16:24:55.671Z,19.27
2022-09-10T16:27:22.095Z,19.17
2022-09-10T16:29:48.947Z,19.36
2022-09-10T16:32:15.371Z,19.44
2022-09-10T16:34:41.818Z,19.46
2022-09-10T16:37:08.323Z,19.52
2022-09-10T16:39:34.826Z,19.39
2022-09-10T16:42:01.397Z,19.40
2022-09-10T16:44:27.829Z,19.37
2022-09-10T16:46:54.302Z,19.37
2022-09-10T16:49:20.776Z,19.40
2022-09-10T16:51:48.098Z,19.38
2022-09-10T16:54:15.888Z,19.37
2022-09-10T16:56:44.655Z,19.03
2022-09-10T16:59:19.662Z,19.03
2022-09-10T17:01:47.546Z,19.35
2022-09-10T17:04:20.504Z,19.31
2022-09-10T17:06:48.985Z,19.38
2022-09-10T17:09:15.659Z,19.28
2022-09-10T17:11:42.304Z,19.37
2022-09-10T17:14:08.910Z,19.32
2022-09-10T17:16:37.390Z,19.23
2022-09-10T17:19:16.876Z,19.12
2022-09-10T17:21:46.362Z,18.99
2022-09-10T17:24:13.777Z,19.00
2022-09-10T17:26:41.544Z,18.97
2022-09-10T17:29:09.314Z,18.89
2022-09-10T17:31:36.115Z,18.67
2022-09-10T17:34:04.154Z,18.76
2022-09-10T17:36:31.682Z,18.67
2022-09-10T17:38:58.347Z,18.59
2022-09-10T17:41:28.958Z,18.50
2022-09-10T17:43:57.733Z,18.46
2022-09-10T17:46:24.235Z,18.35
2022-09-10T17:48:52.239Z,18.26
2022-09-10T17:51:21.264Z,18.03
2022-09-10T17:53:47.727Z,18.16
2022-09-10T17:56:17.518Z,17.99
2022-09-10T17:58:44.015Z,18.12
2022-09-10T18:01:27.208Z,18.01
2022-09-10T18:03:53.869Z,17.70
2022-09-10T18:06:21.258Z,17.86
2022-09-10T18:08:47.971Z,17.92
2022-09-10T18:11:17.815Z,17.89
2022-09-10T18:13:44.884Z,17.90
2022-09-10T18:16:16.403Z,17.82
2022-09-10T18:18:43.969Z,17.57
2022-09-10T18:21:18.519Z,17.71
2022-09-10T18:23:57.045Z,17.59
2022-09-10T18:26:25.826Z,17.51
2022-09-10T18:28:54.364Z,17.31
2022-09-10T18:31:21.327Z,17.28
2022-09-10T18:33:47.853Z,17.40
2022-09-10T18:36:17.049Z,17.34
2022-09-10T18:38:43.809Z,17.25
2022-09-10T18:41:20.915Z,17.22
2022-09-10T18:43:48.934Z,17.05
2022-09-10T18:46:15.528Z,17.16
2022-09-10T18:48:42.534Z,17.01
2022-09-10T18:51:11.575Z,17.15
2022-09-10T18:53:39.404Z,17.02
2022-09-10T18:56:08.016Z,16.90
2022-09-10T18:58:34.702Z,17.02
2022-09-10T19:01:07.297Z,16.93
2022-09-10T19:03:37.708Z,16.78
2022-09-10T19:06:06.143Z,16.88
2022-09-10T19:08:32.780Z,16.80
2022-09-10T19:10:59.412Z,16.70
2022-09-10T19:13:25.843Z,16.75
2022-09-10T19:15:56.561Z,16.61
2022-09-10T19:18:23.167Z,16.75
2022-09-10T19:20:49.636Z,16.67
2022-09-10T19:23:19.675Z,16.62
2022-09-10T19:25:56.651Z,16.69
2022-09-10T19:28:24.072Z,16.49
2022-09-10T19:30:51.071Z,16.60
2022-09-10T19:33:18.068Z,16.32
2022-09-10T19:35:45.633Z,16.34
2022-09-10T19:38:36.289Z,16.42
2022-09-10T19:41:07.998Z,16.22
2022-09-10T19:43:36.208Z,16.25
2022-09-10T19:46:06.812Z,16.40
2022-09-10T19:48:33.739Z,16.34
2022-09-10T19:51:02.073Z,16.33
2022-09-10T19:53:28.567Z,16.19
2022-09-10T19:55:55.015Z,16.08
2022-09-10T19:58:21.496Z,16.19
2022-09-10T20:00:47.990Z,16.05
2022-09-10T20:03:14.869Z,15.95
2022-09-10T20:05:41.512Z,16.13
2022-09-10T20:08:08.755Z,16.14
2022-09-10T20:10:35.720Z,16.16
2022-09-10T20:13:02.229Z,16.22
2022-09-10T20:15:28.662Z,16.15
2022-09-10T20:17:55.093Z,16.15
2022-09-10T20:20:21.530Z,16.00
2022-09-10T20:22:47.990Z,15.83
2022-09-10T20:25:14.739Z,15.70
2022-09-10T20:27:41.190Z,15.63
2022-09-10T20:30:07.987Z,15.61
2022-09-10T20:32:34.425Z,15.60
2022-09-10T20:35:00.878Z,15.29
2022-09-10T20:37:27.379Z,15.17
2022-09-10T20:39:53.847Z,14.89
2022-09-10T20:42:20.282Z,15.11
2022-09-10T20:44:46.734Z,15.01
2022-09-10T20:47:13.234Z,15.26
2022-09-10T20:49:39.665Z,15.21
2022-09-10T20:52:06.215Z,15.27
2022-09-10T20:54:32.937Z,15.12
2022-09-10T20:56:59.359Z,15.01
2022-09-10T20:59:27.853Z,14.77
2022-09-10T21:01:54.521Z,14.56
2022-09-10T21:04:21.220Z,14.74
2022-09-10T21:06:48.014Z,14.82
2022-09-10T21:09:14.538Z,14.74
2022-09-10T21:11:41.034Z,14.58
2022-09-10T21:14:08.664Z,14.73
2022-09-10T21:16:37.609Z,14.75
2022-09-10T21:19:10.395Z,14.83
2022-09-10T21:21:37.933Z,14.92
2022-09-10T21:24:10.912Z,14.82
2022-09-10T21:26:39.114Z,14.83
2022-09-10T21:29:07.943Z,14.73
2022-09-10T21:31:34.915Z,14.65
2022-09-10T21:34:03.381Z,14.71
2022-09-10T21:36:31.026Z,14.79
2022-09-10T21:38:59.450Z,14.84
2022-09-10T21:41:44.015Z,14.70
2022-09-10T21:44:13.146Z,14.69
2022-09-10T21:46:40.793Z,14.54
2022-09-10T21:49:07.313Z,14.38
2022-09-10T21:51:33.938Z,14.19
2022-09-10T21:54:00.677Z,14.51
2022-09-10T21:56:27.938Z,14.65
2022-09-10T21:58:54.663Z,14.40
2022-09-10T22:01:23.711Z,14.44
2022-09-10T22:03:50.846Z,14.39
2022-09-10T22:06:19.309Z,14.52
2022-09-10T22:08:48.994Z,14.51
2022-09-10T22:11:18.438Z,14.50
2022-09-10T22:13:49.922Z,14.24
2022-09-10T22:16:16.554Z,14.24
2022-09-10T22:18:43.263Z,14.31
2022-09-10T22:21:09.830Z,14.22
2022-09-10T22:23:38.377Z,14.35
2022-09-10T22:26:07.133Z,14.20
2022-09-10T22:28:35.130Z,14.35
2022-09-10T22:31:12.465Z,14.28
2022-09-10T22:33:43.141Z,14.29
2022-09-10T22:36:10.402Z,14.11
2022-09-10T22:38:36.923Z,14.28
2022-09-10T22:41:04.178Z,14.17
2022-09-10T22:43:31.227Z,14.29
2022-09-10T22:45:57.675Z,14.32
2022-09-10T22:48:24.357Z,14.04
2022-09-10T22:50:50.794Z,13.94
2022-09-10T22:53:17.283Z,14.07
2022-09-10T22:55:43.866Z,14.14
2022-09-10T22:58:10.695Z,14.08
2022-09-10T23:00:37.303Z,13.98
2022-09-10T23:03:03.972Z,14.07
2022-09-10T23:05:31.277Z,13.95
2022-09-10T23:07:57.827Z,13.84
2022-09-10T23:10:24.653Z,14.05
2022-09-10T23:12:51.140Z,13.86
2022-09-10T23:15:17.713Z,13.96
2022-09-10T23:17:44.260Z,14.01
2022-09-10T23:20:10.681Z,13.96
2022-09-10T23:22:37.131Z,13.74
2022-09-10T23:25:03.976Z,13.80
2022-09-10T23:27:30.414Z,13.56
2022-09-10T23:29:56.880Z,13.58
2022-09-10T23:32:23.301Z,13.63
2022-09-10T23:34:49.743Z,13.79
2022-09-10T23:37:16.594Z,13.83
2022-09-10T23:39:43.205Z,13.73
2022-09-10T23:42:09.652Z,13.79
2022-09-10T23:44:36.086Z,13.82
2022-09-10T23:47:02.584Z,13.55
2022-09-10T23:49:29.023Z,13.64
2022-09-10T23:51:55.522Z,13.61
2022-09-10T23:54:21.909Z,13.48
2022-09-10T23:56:48.653Z,13.72
2022-09-10T23:59:15.078Z,13.56
